Аэропорт: Елизово. Петропавловск-Камчатский

ICAO: UHPP

METAR:
2018/07/22 20:00
UHPP 222000Z 22004MPS 9999 -SHRA SCT011 BKN030CB 14/12 Q1010 R16R/290150 NOSIG RMK MT OBSC QFE754/1006
METAR:
2018/07/22 18:37
TAF UHPP 221643Z 2218/2324 23003G12MPS 9999 BKN030CB 
      TEMPO 2218/2224 1000 -SHRA BR VV003 
     FM230000 17003G12MPS 9999 -SHRA BKN020CB 
      TEMPO 2300/2324 3100 BR BKN006 OVC020CB